»·PEaware :: N6507W L52-KMHV

N6507W :: L52-KMHV

FLIGHT INFORMATION

Flight Status: Arrived
Operator: Privately registered:
United States
More flights under this callsign
Pilot: Jukka N. (18040)
Aircraft: BEECH AIRCRAFT BARON
(BE58)
More flights by this aircraft type
Origin: L52 Oceano Co
United States
Destination: KMHV Mojave
United States
More flights between these airports :: More routes between these airports
Route:
File this flight plan on PilotEdge
Remarks:
Altitude:
(Current/Filed)
9,500ft
Speed:
(Current/Filed)
150kts
Departed: 12-Mar-19 10:19 AM
Arrived: 12-Mar-19 11:26 AM
Distance/Time
Traveled:
121nm/1:07
Distance/Time
To Go:
Arrived

Flight Plot

Page will automatically refresh every two minutes.

Flight plan parsing failed; only flown route is shown


Map Options




Map Legend


Flown Route
Filed Route
Departure Airport
Arrival Airport
Navaid (VOR, NDB)
Fix

Horizontal Profiles

Position Reports

Time Latitude Longitude Heading Altitude Ground
Speed
12-Mar-19 10:16 35.103559 -120.625125 206 17ft 0kts
12-Mar-19 10:17 35.103087 -120.625173 124 17ft 0kts
12-Mar-19 10:18 35.097996 -120.615620 124 177ft 101kts
12-Mar-19 10:19 35.088240 -120.575606 84 1541ft 132kts
12-Mar-19 10:20 35.090297 -120.530143 84 3140ft 135kts
12-Mar-19 10:21 35.090712 -120.484147 84 4657ft 133kts
12-Mar-19 10:22 35.089469 -120.440070 84 5919ft 133kts
12-Mar-19 10:23 35.087351 -120.394323 84 6948ft 136kts
12-Mar-19 10:24 35.093470 -120.353335 50 7974ft 115kts
12-Mar-19 10:25 35.098671 -120.314378 75 8909ft 115kts
12-Mar-19 10:26 35.098717 -120.273170 79 9524ft 134kts
12-Mar-19 10:27 35.098136 -120.220437 82 9525ft 167kts
12-Mar-19 10:28 35.097419 -120.162145 82 9521ft 174kts
12-Mar-19 10:29 35.096741 -120.102403 82 9520ft 176kts
12-Mar-19 10:30 35.096044 -120.042578 82 9520ft 176kts
12-Mar-19 10:31 35.095323 -119.982459 82 9520ft 176kts
12-Mar-19 10:32 35.094571 -119.922445 82 9521ft 176kts
12-Mar-19 10:33 35.093788 -119.862480 82 9521ft 176kts
12-Mar-19 10:34 35.092976 -119.802025 82 9475ft 178kts
12-Mar-19 10:35 35.092116 -119.741579 82 9477ft 177kts
12-Mar-19 10:36 35.091236 -119.681657 82 9475ft 175kts
12-Mar-19 10:37 35.090340 -119.622372 82 9501ft 173kts
12-Mar-19 10:38 35.089438 -119.563215 82 9503ft 174kts
12-Mar-19 10:39 35.088492 -119.504032 82 9503ft 174kts
12-Mar-19 10:40 35.087511 -119.444620 82 9503ft 174kts
12-Mar-19 10:41 35.086503 -119.385328 82 9503ft 174kts
12-Mar-19 10:42 35.085473 -119.326382 83 9502ft 174kts
12-Mar-19 10:43 35.084406 -119.267107 83 9502ft 174kts
12-Mar-19 10:44 35.083377 -119.207727 84 9502ft 175kts
12-Mar-19 10:45 35.082186 -119.148329 84 9576ft 170kts
12-Mar-19 10:46 35.081063 -119.089876 83 9612ft 173kts
12-Mar-19 10:47 35.079885 -119.030839 83 9612ft 174kts
12-Mar-19 10:48 35.078669 -118.971427 83 9612ft 175kts
12-Mar-19 10:49 35.077425 -118.911918 83 9612ft 175kts
12-Mar-19 10:50 35.076153 -118.852430 83 9612ft 175kts
12-Mar-19 10:51 35.074844 -118.792429 84 9575ft 176kts
12-Mar-19 10:52 35.073597 -118.732874 85 9576ft 174kts
12-Mar-19 10:53 35.072482 -118.673796 76 9572ft 170kts
12-Mar-19 10:54 35.089125 -118.621693 68 9575ft 167kts
12-Mar-19 10:55 35.101225 -118.566685 68 9575ft 168kts
12-Mar-19 10:56 35.113372 -118.511474 68 9575ft 168kts
12-Mar-19 10:57 35.125545 -118.456184 68 9575ft 168kts
12-Mar-19 10:58 35.137687 -118.401069 68 9575ft 168kts
12-Mar-19 10:59 35.149690 -118.346621 69 9574ft 168kts
12-Mar-19 11:00 35.161861 -118.291409 69 9574ft 168kts
12-Mar-19 11:02 35.174113 -118.236105 69 9544ft 169kts
12-Mar-19 11:03 35.185121 -118.180297 85 9512ft 170kts
12-Mar-19 11:04 35.183449 -118.122276 86 9510ft 170kts
12-Mar-19 11:05 35.174302 -118.065734 113 9511ft 177kts
12-Mar-19 11:06 35.150496 -118.012902 114 9510ft 177kts
12-Mar-19 11:07 35.126741 -117.960250 114 9510ft 177kts
12-Mar-19 11:08 35.102893 -117.907397 113 9501ft 177kts
12-Mar-19 11:09 35.079054 -117.854609 113 9501ft 177kts
12-Mar-19 11:10 35.044581 -117.815995 179 9475ft 167kts
12-Mar-19 11:11 35.020390 -117.845382 270 9184ft 138kts
12-Mar-19 11:12 35.025799 -117.889243 298 8299ft 141kts
12-Mar-19 11:13 35.041586 -117.930701 297 6529ft 125kts
12-Mar-19 11:14 35.049571 -117.965925 281 5198ft 99kts
12-Mar-19 11:15 35.054348 -117.995631 281 4203ft 83kts
12-Mar-19 11:16 35.056350 -118.025292 286 3590ft 95kts
12-Mar-19 11:17 35.073928 -118.014504 94 3501ft 137kts
12-Mar-19 11:18 35.054484 -118.007943 306 3735ft 79kts
12-Mar-19 11:19 35.065500 -117.994307 143 3745ft 121kts
12-Mar-19 11:20 35.050125 -118.010384 323 3699ft 101kts
12-Mar-19 11:20 35.051054 -117.996244 205 3778ft 121kts
12-Mar-19 11:22 35.051223 -118.041354 279 3961ft 121kts
12-Mar-19 11:23 35.055204 -118.075501 275 3460ft 87kts
12-Mar-19 11:23 35.058150 -118.105210 278 3390ft 99kts
12-Mar-19 11:24 35.058993 -118.137467 274 2942ft 90kts
12-Mar-19 11:26 35.058345 -118.157792 181 2794ft 0kts
12-Mar-19 11:26 35.058345 -118.157792 181 2794ft 0kts
12-Mar-19 11:27 35.056485 -118.160157 144 2794ft 0kts
12-Mar-19 11:29 35.056485 -118.160157 144 2794ft 0kts
12-Mar-19 11:29 35.056485 -118.160157 144 2794ft 0kts
12-Mar-19 11:30 35.056485 -118.160157 144 2794ft 0kts
12-Mar-19 11:31 35.056485 -118.160157 144 2794ft 0kts
12-Mar-19 11:32 35.056485 -118.160157 144 2794ft 0kts
12-Mar-19 11:33 35.056620 -118.160278 144 2794ft 1kts
12-Mar-19 11:34 35.056802 -118.160482 143 2794ft 1kts
12-Mar-19 11:35 35.056805 -118.160484 144 2794ft 0kts

Navigation Log

Ident Type
Flight plan parsing failed, navigation log unavailable